LFRN 230900Z AUTO VRB02KT CAVOK 25/15 Q1019 NOSIG

ElémentsDécodage
LFRN Station météo située sur l'aérodrome de RENNES Saint-Jacques
230900Z émis le 23 du mois à 09h00 UTC
AUTO Bulletin édité par un automate
VRB02KT vent de direction variable, 02 noeuds
CAVOK Ceiling And Visibility OK
- Visibilité de 10 Km ou plus
- Pas de nuage au-dessous de 1500m ou au-dessous de l'altitude minimale du secteur la plus élevée (si>1500m) et absence de CB
- pas de temps présent significatif
25/15 température 25°C, point de rosée 15°C
 soit une humidité relative de 54%
Q1019 la pression au niveau de la mer (QNH) est de 1019 hPa
NOSIG Pas de changement significatif prévu au cours des deux heures suivant l'heure de l'observation